Terminal Aerodrome Forecast
Issued by NWS Goodland, KS

Home | Current Version | Previous Version | Text Only | Print | Product List | Glossary On
Versions: 1 2 3 4 5 6 7 8 9 10 11 12 13
000
FTUS43 KGLD 302355 AAA
TAFGLD
TAF AMD
KGLD 302355Z 3100/3124 19014G25KT P6SM VCSH OVC025
     FM310400 17012KT 6SM BR VCSH OVC025
     FM311100 VRB05KT 2SM BR OVC015
     FM311600 27006KT 6SM -RA SCT015 OVC025=

USA.gov is the U.S. government's official web portal to all federal, state and local government web resources and services.